sensor_id;sensor_type;location;lat;lon;timestamp;P1;durP1;ratioP1;P2;durP2;ratioP2
9938;SDS011;5008;50.656;7.188;2023-05-14T04:00:57;6.50;;;5.90;;
9938;SDS011;5008;50.656;7.188;2023-05-14T04:03:25;5.93;;;5.43;;
9938;SDS011;5008;50.656;7.188;2023-05-14T04:05:51;6.90;;;6.20;;
9938;SDS011;5008;50.656;7.188;2023-05-14T04:08:18;7.40;;;6.80;;
9938;SDS011;5008;50.656;7.188;2023-05-14T04:10:45;7.27;;;6.57;;
9938;SDS011;5008;50.656;7.188;2023-05-14T04:13:12;7.10;;;6.40;;
9938;SDS011;5008;50.656;7.188;2023-05-14T04:15:39;6.27;;;5.67;;
9938;SDS011;5008;50.656;7.188;2023-05-14T04:18:07;6.87;;;6.27;;
9938;SDS011;5008;50.656;7.188;2023-05-14T04:20:34;6.43;;;5.93;;
9938;SDS011;5008;50.656;7.188;2023-05-14T04:23:00;6.40;;;5.90;;
9938;SDS011;5008;50.656;7.188;2023-05-14T04:25:27;6.67;;;6.10;;
9938;SDS011;5008;50.656;7.188;2023-05-14T04:27:54;6.73;;;5.60;;
9938;SDS011;5008;50.656;7.188;2023-05-14T04:30:21;6.33;;;5.77;;
9938;SDS011;5008;50.656;7.188;2023-05-14T04:32:48;6.50;;;5.90;;
9938;SDS011;5008;50.656;7.188;2023-05-14T04:35:17;6.70;;;6.10;;
9938;SDS011;5008;50.656;7.188;2023-05-14T04:37:44;6.13;;;5.53;;
9938;SDS011;5008;50.656;7.188;2023-05-14T04:40:11;6.40;;;5.83;;
9938;SDS011;5008;50.656;7.188;2023-05-14T04:42:40;6.47;;;5.87;;
9938;SDS011;5008;50.656;7.188;2023-05-14T04:45:08;7.10;;;6.40;;
9938;SDS011;5008;50.656;7.188;2023-05-14T04:47:35;7.47;;;6.87;;
9938;SDS011;5008;50.656;7.188;2023-05-14T04:50:02;7.43;;;6.73;;
9938;SDS011;5008;50.656;7.188;2023-05-14T04:52:31;7.07;;;6.47;;
9938;SDS011;5008;50.656;7.188;2023-05-14T04:54:58;7.30;;;6.70;;
9938;SDS011;5008;50.656;7.188;2023-05-14T04:57:25;6.97;;;6.27;;
9938;SDS011;5008;50.656;7.188;2023-05-14T04:59:52;6.63;;;6.03;;
9938;SDS011;5008;50.656;7.188;2023-05-14T05:02:18;7.30;;;6.63;;
9938;SDS011;5008;50.656;7.188;2023-05-14T05:04:45;8.80;;;7.67;;
9938;SDS011;5008;50.656;7.188;2023-05-14T05:07:12;8.53;;;7.67;;
9938;SDS011;5008;50.656;7.188;2023-05-14T05:09:41;8.73;;;7.83;;
9938;SDS011;5008;50.656;7.188;2023-05-14T05:12:08;8.80;;;8.00;;
9938;SDS011;5008;50.656;7.188;2023-05-14T05:14:35;9.43;;;8.40;;
9938;SDS011;5008;50.656;7.188;2023-05-14T05:17:02;9.20;;;8.30;;
9938;SDS011;5008;50.656;7.188;2023-05-14T05:19:29;9.67;;;8.77;;
9938;SDS011;5008;50.656;7.188;2023-05-14T05:21:55;9.60;;;8.70;;
9938;SDS011;5008;50.656;7.188;2023-05-14T05:24:22;9.23;;;8.43;;
9938;SDS011;5008;50.656;7.188;2023-05-14T05:26:50;8.50;;;7.70;;
9938;SDS011;5008;50.656;7.188;2023-05-14T05:29:18;8.93;;;7.97;;
9938;SDS011;5008;50.656;7.188;2023-05-14T05:31:44;13.07;;;8.33;;
9938;SDS011;5008;50.656;7.188;2023-05-14T05:34:11;9.40;;;8.50;;
9938;SDS011;5008;50.656;7.188;2023-05-14T05:36:38;8.83;;;8.13;;
9938;SDS011;5008;50.656;7.188;2023-05-14T05:39:05;11.00;;;9.17;;
9938;SDS011;5008;50.656;7.188;2023-05-14T05:41:31;9.80;;;9.00;;
9938;SDS011;5008;50.656;7.188;2023-05-14T05:43:59;9.40;;;8.43;;
9938;SDS011;5008;50.656;7.188;2023-05-14T05:46:26;9.77;;;8.93;;
9938;SDS011;5008;50.656;7.188;2023-05-14T05:48:53;9.70;;;8.80;;
9938;SDS011;5008;50.656;7.188;2023-05-14T05:51:20;8.97;;;8.17;;
9938;SDS011;5008;50.656;7.188;2023-05-14T05:53:46;9.50;;;8.60;;
9938;SDS011;5008;50.656;7.188;2023-05-14T05:56:13;10.23;;;9.33;;
9938;SDS011;5008;50.656;7.188;2023-05-14T05:58:40;9.77;;;8.87;;
9938;SDS011;5008;50.656;7.188;2023-05-14T06:01:08;9.53;;;8.73;;
9938;SDS011;5008;50.656;7.188;2023-05-14T06:03:35;9.73;;;8.93;;
9938;SDS011;5008;50.656;7.188;2023-05-14T06:06:01;9.63;;;8.77;;
9938;SDS011;5008;50.656;7.188;2023-05-14T06:08:28;10.63;;;9.67;;
9938;SDS011;5008;50.656;7.188;2023-05-14T06:10:55;10.53;;;9.63;;
9938;SDS011;5008;50.656;7.188;2023-05-14T06:13:22;10.60;;;9.60;;
9938;SDS011;5008;50.656;7.188;2023-05-14T06:15:49;11.03;;;10.03;;
9938;SDS011;5008;50.656;7.188;2023-05-14T06:18:17;11.20;;;10.20;;
9938;SDS011;5008;50.656;7.188;2023-05-14T06:20:43;10.63;;;9.67;;
9938;SDS011;5008;50.656;7.188;2023-05-14T06:23:10;11.17;;;10.07;;
9938;SDS011;5008;50.656;7.188;2023-05-14T06:25:37;11.50;;;10.50;;
9938;SDS011;5008;50.656;7.188;2023-05-14T06:28:04;12.27;;;11.07;;
9938;SDS011;5008;50.656;7.188;2023-05-14T06:30:30;12.20;;;11.10;;
9938;SDS011;5008;50.656;7.188;2023-05-14T06:32:57;10.73;;;9.73;;
9938;SDS011;5008;50.656;7.188;2023-05-14T06:35:25;11.57;;;10.47;;
9938;SDS011;5008;50.656;7.188;2023-05-14T06:37:52;11.77;;;10.70;;
9938;SDS011;5008;50.656;7.188;2023-05-14T06:40:19;11.60;;;10.60;;
9938;SDS011;5008;50.656;7.188;2023-05-14T06:42:46;11.70;;;10.63;;
9938;SDS011;5008;50.656;7.188;2023-05-14T06:45:13;11.80;;;10.60;;
9938;SDS011;5008;50.656;7.188;2023-05-14T06:47:40;11.20;;;10.20;;
9938;SDS011;5008;50.656;7.188;2023-05-14T06:50:06;11.70;;;10.63;;
9938;SDS011;5008;50.656;7.188;2023-05-14T06:52:35;11.43;;;10.43;;
9938;SDS011;5008;50.656;7.188;2023-05-14T06:55:02;11.47;;;10.37;;
9938;SDS011;5008;50.656;7.188;2023-05-14T06:57:29;10.67;;;9.77;;
9938;SDS011;5008;50.656;7.188;2023-05-14T06:59:58;11.47;;;10.57;;
9938;SDS011;5008;50.656;7.188;2023-05-14T07:02:24;11.80;;;10.80;;
9938;SDS011;5008;50.656;7.188;2023-05-14T07:04:51;10.73;;;9.83;;
9938;SDS011;5008;50.656;7.188;2023-05-14T07:07:18;10.80;;;9.80;;
9938;SDS011;5008;50.656;7.188;2023-05-14T07:09:46;11.37;;;10.37;;
9938;SDS011;5008;50.656;7.188;2023-05-14T07:12:13;10.87;;;9.93;;
9938;SDS011;5008;50.656;7.188;2023-05-14T07:14:40;11.23;;;10.30;;
9938;SDS011;5008;50.656;7.188;2023-05-14T07:17:07;11.10;;;10.20;;
9938;SDS011;5008;50.656;7.188;2023-05-14T07:19:33;11.43;;;10.43;;
9938;SDS011;5008;50.656;7.188;2023-05-14T07:22:01;10.97;;;10.03;;
9938;SDS011;5008;50.656;7.188;2023-05-14T07:24:28;11.00;;;9.97;;
9938;SDS011;5008;50.656;7.188;2023-05-14T07:26:57;10.67;;;9.77;;
9938;SDS011;5008;50.656;7.188;2023-05-14T07:29:25;10.70;;;9.80;;
9938;SDS011;5008;50.656;7.188;2023-05-14T07:31:54;10.80;;;10.00;;
9938;SDS011;5008;50.656;7.188;2023-05-14T07:34:20;11.10;;;10.10;;
9938;SDS011;5008;50.656;7.188;2023-05-14T07:36:47;10.90;;;10.00;;
9938;SDS011;5008;50.656;7.188;2023-05-14T07:39:14;11.57;;;10.47;;
9938;SDS011;5008;50.656;7.188;2023-05-14T07:41:41;13.70;;;12.50;;
9938;SDS011;5008;50.656;7.188;2023-05-14T07:44:09;12.40;;;11.30;;
9938;SDS011;5008;50.656;7.188;2023-05-14T07:46:36;12.40;;;11.27;;
9938;SDS011;5008;50.656;7.188;2023-05-14T07:49:02;11.63;;;10.63;;
9938;SDS011;5008;50.656;7.188;2023-05-14T07:51:29;12.90;;;11.70;;
9938;SDS011;5008;50.656;7.188;2023-05-14T07:53:57;13.40;;;12.27;;
9938;SDS011;5008;50.656;7.188;2023-05-14T07:56:25;13.03;;;11.73;;
9938;SDS011;5008;50.656;7.188;2023-05-14T07:58:51;13.80;;;12.50;;
9938;SDS011;5008;50.656;7.188;2023-05-14T08:01:19;13.70;;;12.47;;
9938;SDS011;5008;50.656;7.188;2023-05-14T08:03:46;14.73;;;13.27;;
9938;SDS011;5008;50.656;7.188;2023-05-14T08:06:13;14.27;;;13.17;;
9938;SDS011;5008;50.656;7.188;2023-05-14T08:08:40;13.23;;;12.10;;
9938;SDS011;5008;50.656;7.188;2023-05-14T08:11:07;12.50;;;11.30;;
9938;SDS011;5008;50.656;7.188;2023-05-14T08:13:33;11.93;;;10.93;;
9938;SDS011;5008;50.656;7.188;2023-05-14T08:16:00;11.37;;;10.37;;
9938;SDS011;5008;50.656;7.188;2023-05-14T08:18:28;12.53;;;11.33;;
9938;SDS011;5008;50.656;7.188;2023-05-14T08:20:55;11.68;;;10.70;;
9938;SDS011;5008;50.656;7.188;2023-05-14T08:23:22;11.43;;;10.47;;
9938;SDS011;5008;50.656;7.188;2023-05-14T08:25:52;11.00;;;9.93;;
9938;SDS011;5008;50.656;7.188;2023-05-14T08:28:19;10.43;;;9.53;;
9938;SDS011;5008;50.656;7.188;2023-05-14T08:30:45;10.40;;;9.50;;
9938;SDS011;5008;50.656;7.188;2023-05-14T08:33:12;10.25;;;8.68;;
9938;SDS011;5008;50.656;7.188;2023-05-14T08:35:40;10.48;;;9.25;;
9938;SDS011;5008;50.656;7.188;2023-05-14T08:38:07;10.35;;;9.52;;
9938;SDS011;5008;50.656;7.188;2023-05-14T08:40:34;9.23;;;8.32;;
9938;SDS011;5008;50.656;7.188;2023-05-14T08:43:00;9.35;;;8.63;;
9938;SDS011;5008;50.656;7.188;2023-05-14T08:45:28;9.70;;;8.90;;
9938;SDS011;5008;50.656;7.188;2023-05-14T08:47:58;9.45;;;8.57;;
9938;SDS011;5008;50.656;7.188;2023-05-14T08:50:26;9.63;;;8.67;;
9938;SDS011;5008;50.656;7.188;2023-05-14T08:52:55;9.48;;;8.68;;
9938;SDS011;5008;50.656;7.188;2023-05-14T08:55:22;8.27;;;7.65;;
9938;SDS011;5008;50.656;7.188;2023-05-14T08:57:50;8.13;;;7.43;;
9938;SDS011;5008;50.656;7.188;2023-05-14T09:00:17;8.80;;;8.02;;
9938;SDS011;5008;50.656;7.188;2023-05-14T09:02:44;8.75;;;8.05;;
9938;SDS011;5008;50.656;7.188;2023-05-14T09:05:12;7.70;;;7.10;;
9938;SDS011;5008;50.656;7.188;2023-05-14T09:07:42;7.95;;;7.25;;
9938;SDS011;5008;50.656;7.188;2023-05-14T09:10:10;7.05;;;6.45;;
9938;SDS011;5008;50.656;7.188;2023-05-14T09:12:39;7.15;;;6.57;;
9938;SDS011;5008;50.656;7.188;2023-05-14T09:15:06;7.97;;;7.18;;
9938;SDS011;5008;50.656;7.188;2023-05-14T09:17:34;7.10;;;6.57;;
9938;SDS011;5008;50.656;7.188;2023-05-14T09:20:00;7.90;;;6.55;;
9938;SDS011;5008;50.656;7.188;2023-05-14T09:22:28;6.68;;;6.13;;
9938;SDS011;5008;50.656;7.188;2023-05-14T09:25:06;6.55;;;6.05;;
9938;SDS011;5008;50.656;7.188;2023-05-14T09:27:37;6.97;;;6.05;;
9938;SDS011;5008;50.656;7.188;2023-05-14T09:30:07;7.20;;;6.60;;
9938;SDS011;5008;50.656;7.188;2023-05-14T09:32:36;6.97;;;6.30;;
9938;SDS011;5008;50.656;7.188;2023-05-14T09:35:14;7.07;;;6.20;;
9938;SDS011;5008;50.656;7.188;2023-05-14T09:37:42;8.00;;;7.25;;
9938;SDS011;5008;50.656;7.188;2023-05-14T09:40:10;6.85;;;6.25;;
9938;SDS011;5008;50.656;7.188;2023-05-14T09:42:39;6.70;;;6.20;;
9938;SDS011;5008;50.656;7.188;2023-05-14T09:45:06;6.68;;;6.07;;
9938;SDS011;5008;50.656;7.188;2023-05-14T09:47:34;6.90;;;6.05;;
9938;SDS011;5008;50.656;7.188;2023-05-14T09:50:01;6.47;;;5.70;;
9938;SDS011;5008;50.656;7.188;2023-05-14T09:52:28;6.53;;;6.03;;
9938;SDS011;5008;50.656;7.188;2023-05-14T09:54:55;6.20;;;5.70;;
9938;SDS011;5008;50.656;7.188;2023-05-14T09:57:22;6.10;;;5.60;;
9938;SDS011;5008;50.656;7.188;2023-05-14T09:59:52;5.47;;;5.07;;
9938;SDS011;5008;50.656;7.188;2023-05-14T10:02:21;5.50;;;5.10;;
9938;SDS011;5008;50.656;7.188;2023-05-14T10:04:49;5.70;;;5.20;;
9938;SDS011;5008;50.656;7.188;2023-05-14T10:07:21;5.18;;;4.78;;
9938;SDS011;5008;50.656;7.188;2023-05-14T10:09:50;5.82;;;5.43;;
9938;SDS011;5008;50.656;7.188;2023-05-14T10:12:31;5.47;;;5.00;;
9938;SDS011;5008;50.656;7.188;2023-05-14T10:15:02;5.13;;;4.70;;
9938;SDS011;5008;50.656;7.188;2023-05-14T10:17:33;5.32;;;4.93;;
9938;SDS011;5008;50.656;7.188;2023-05-14T10:20:01;5.30;;;4.88;;
9938;SDS011;5008;50.656;7.188;2023-05-14T10:22:33;3.80;;;3.60;;
9938;SDS011;5008;50.656;7.188;2023-05-14T10:25:01;4.75;;;4.45;;
9938;SDS011;5008;50.656;7.188;2023-05-14T10:27:28;5.00;;;4.60;;
9938;SDS011;5008;50.656;7.188;2023-05-14T10:29:56;4.40;;;4.10;;
9938;SDS011;5008;50.656;7.188;2023-05-14T10:32:24;4.68;;;4.38;;
9938;SDS011;5008;50.656;7.188;2023-05-14T10:34:52;4.45;;;4.13;;
9938;SDS011;5008;50.656;7.188;2023-05-14T10:37:20;4.15;;;3.85;;
9938;SDS011;5008;50.656;7.188;2023-05-14T10:39:48;4.55;;;4.25;;
9938;SDS011;5008;50.656;7.188;2023-05-14T10:42:17;3.80;;;3.50;;
9938;SDS011;5008;50.656;7.188;2023-05-14T10:44:52;4.53;;;4.20;;
9938;SDS011;5008;50.656;7.188;2023-05-14T10:47:22;4.05;;;3.75;;
9938;SDS011;5008;50.656;7.188;2023-05-14T10:49:52;3.85;;;3.55;;
9938;SDS011;5008;50.656;7.188;2023-05-14T10:52:20;4.00;;;3.70;;
9938;SDS011;5008;50.656;7.188;2023-05-14T10:54:48;3.88;;;3.50;;
9938;SDS011;5008;50.656;7.188;2023-05-14T10:57:16;3.97;;;3.75;;
9938;SDS011;5008;50.656;7.188;2023-05-14T10:59:45;4.10;;;3.90;;
9938;SDS011;5008;50.656;7.188;2023-05-14T11:02:19;5.03;;;4.63;;
9938;SDS011;5008;50.656;7.188;2023-05-14T11:04:59;4.50;;;3.60;;
9938;SDS011;5008;50.656;7.188;2023-05-14T11:07:28;4.38;;;4.07;;
9938;SDS011;5008;50.656;7.188;2023-05-14T11:10:06;4.68;;;3.90;;
9938;SDS011;5008;50.656;7.188;2023-05-14T11:12:35;4.20;;;3.90;;
9938;SDS011;5008;50.656;7.188;2023-05-14T11:15:04;3.92;;;3.70;;
9938;SDS011;5008;50.656;7.188;2023-05-14T11:17:33;3.65;;;3.40;;
9938;SDS011;5008;50.656;7.188;2023-05-14T11:20:03;3.38;;;3.17;;
9938;SDS011;5008;50.656;7.188;2023-05-14T11:22:30;3.60;;;3.30;;
9938;SDS011;5008;50.656;7.188;2023-05-14T11:24:57;3.30;;;3.10;;
9938;SDS011;5008;50.656;7.188;2023-05-14T11:27:24;3.97;;;3.67;;
9938;SDS011;5008;50.656;7.188;2023-05-14T11:29:51;3.83;;;3.53;;
9938;SDS011;5008;50.656;7.188;2023-05-14T11:32:19;3.60;;;3.35;;
9938;SDS011;5008;50.656;7.188;2023-05-14T11:34:46;3.28;;;3.08;;
9938;SDS011;5008;50.656;7.188;2023-05-14T11:37:15;3.30;;;3.10;;
9938;SDS011;5008;50.656;7.188;2023-05-14T11:39:45;3.20;;;3.00;;
9938;SDS011;5008;50.656;7.188;2023-05-14T11:42:14;3.50;;;3.20;;
9938;SDS011;5008;50.656;7.188;2023-05-14T11:44:44;3.08;;;2.88;;
9938;SDS011;5008;50.656;7.188;2023-05-14T11:47:11;4.35;;;3.95;;
9938;SDS011;5008;50.656;7.188;2023-05-14T11:49:38;4.18;;;3.78;;
9938;SDS011;5008;50.656;7.188;2023-05-14T11:52:06;4.85;;;4.45;;
9938;SDS011;5008;50.656;7.188;2023-05-14T11:54:36;4.60;;;4.30;;
9938;SDS011;5008;50.656;7.188;2023-05-14T11:57:06;4.22;;;3.92;;
9938;SDS011;5008;50.656;7.188;2023-05-14T11:59:34;4.60;;;4.00;;
9938;SDS011;5008;50.656;7.188;2023-05-14T12:02:02;3.95;;;3.65;;
9938;SDS011;5008;50.656;7.188;2023-05-14T12:04:30;4.25;;;3.95;;
9938;SDS011;5008;50.656;7.188;2023-05-14T12:06:57;3.53;;;3.33;;
9938;SDS011;5008;50.656;7.188;2023-05-14T12:09:25;3.95;;;3.65;;
9938;SDS011;5008;50.656;7.188;2023-05-14T12:11:53;4.25;;;3.95;;
9938;SDS011;5008;50.656;7.188;2023-05-14T12:14:20;4.22;;;3.92;;
9938;SDS011;5008;50.656;7.188;2023-05-14T12:16:48;6.43;;;4.03;;
9938;SDS011;5008;50.656;7.188;2023-05-14T12:19:17;4.13;;;3.83;;
9938;SDS011;5008;50.656;7.188;2023-05-14T12:21:46;5.20;;;4.07;;
9938;SDS011;5008;50.656;7.188;2023-05-14T12:24:15;6.05;;;4.15;;
9938;SDS011;5008;50.656;7.188;2023-05-14T12:26:43;3.90;;;3.60;;
9938;SDS011;5008;50.656;7.188;2023-05-14T12:29:13;3.55;;;3.35;;
9938;SDS011;5008;50.656;7.188;2023-05-14T12:31:44;4.00;;;3.60;;
9938;SDS011;5008;50.656;7.188;2023-05-14T12:34:12;3.75;;;3.45;;
9938;SDS011;5008;50.656;7.188;2023-05-14T12:36:39;5.00;;;3.97;;
9938;SDS011;5008;50.656;7.188;2023-05-14T12:39:06;4.10;;;3.80;;
9938;SDS011;5008;50.656;7.188;2023-05-14T12:41:33;4.20;;;3.80;;
9938;SDS011;5008;50.656;7.188;2023-05-14T12:44:00;4.43;;;4.13;;
9938;SDS011;5008;50.656;7.188;2023-05-14T12:46:29;4.50;;;4.13;;
9938;SDS011;5008;50.656;7.188;2023-05-14T12:48:58;4.63;;;4.05;;
9938;SDS011;5008;50.656;7.188;2023-05-14T12:51:25;4.90;;;4.50;;
9938;SDS011;5008;50.656;7.188;2023-05-14T12:53:51;5.72;;;4.88;;
9938;SDS011;5008;50.656;7.188;2023-05-14T12:56:19;8.57;;;4.15;;
9938;SDS011;5008;50.656;7.188;2023-05-14T12:58:51;5.03;;;3.97;;
9938;SDS011;5008;50.656;7.188;2023-05-14T13:01:19;9.18;;;5.28;;
9938;SDS011;5008;50.656;7.188;2023-05-14T13:03:47;3.33;;;3.03;;
9938;SDS011;5008;50.656;7.188;2023-05-14T13:06:14;4.22;;;3.70;;
9938;SDS011;5008;50.656;7.188;2023-05-14T13:08:41;4.30;;;4.00;;
9938;SDS011;5008;50.656;7.188;2023-05-14T13:11:08;4.10;;;3.78;;
9938;SDS011;5008;50.656;7.188;2023-05-14T13:13:35;4.47;;;4.05;;
9938;SDS011;5008;50.656;7.188;2023-05-14T13:16:02;3.38;;;3.13;;
9938;SDS011;5008;50.656;7.188;2023-05-14T13:18:29;4.78;;;4.35;;
9938;SDS011;5008;50.656;7.188;2023-05-14T13:20:57;5.28;;;4.53;;
9938;SDS011;5008;50.656;7.188;2023-05-14T13:23:24;4.75;;;4.35;;
9938;SDS011;5008;50.656;7.188;2023-05-14T13:25:51;4.13;;;3.83;;
9938;SDS011;5008;50.656;7.188;2023-05-14T13:28:18;4.00;;;3.65;;
9938;SDS011;5008;50.656;7.188;2023-05-14T13:33:29;4.65;;;4.28;;
9938;SDS011;5008;50.656;7.188;2023-05-14T13:35:57;3.78;;;3.45;;
9938;SDS011;5008;50.656;7.188;2023-05-14T13:38:24;4.50;;;4.10;;
9938;SDS011;5008;50.656;7.188;2023-05-14T13:40:51;4.88;;;4.47;;
9938;SDS011;5008;50.656;7.188;2023-05-14T13:43:18;4.93;;;4.22;;
9938;SDS011;5008;50.656;7.188;2023-05-14T13:45:45;3.90;;;3.47;;
9938;SDS011;5008;50.656;7.188;2023-05-14T13:48:12;4.47;;;4.07;;
9938;SDS011;5008;50.656;7.188;2023-05-14T13:50:38;5.30;;;4.07;;
9938;SDS011;5008;50.656;7.188;2023-05-14T13:53:07;3.85;;;3.55;;
9938;SDS011;5008;50.656;7.188;2023-05-14T13:55:33;4.38;;;3.97;;
9938;SDS011;5008;50.656;7.188;2023-05-14T13:58:00;4.18;;;3.88;;
9938;SDS011;5008;50.656;7.188;2023-05-14T14:00:27;3.88;;;3.53;;
9938;SDS011;5008;50.656;7.188;2023-05-14T14:02:54;4.25;;;3.88;;
9938;SDS011;5008;50.656;7.188;2023-05-14T14:05:21;3.88;;;3.58;;
9938;SDS011;5008;50.656;7.188;2023-05-14T14:07:52;4.53;;;4.00;;
9938;SDS011;5008;50.656;7.188;2023-05-14T14:10:20;3.80;;;3.50;;
9938;SDS011;5008;50.656;7.188;2023-05-14T14:12:47;4.00;;;3.70;;
9938;SDS011;5008;50.656;7.188;2023-05-14T14:15:14;3.90;;;3.60;;
9938;SDS011;5008;50.656;7.188;2023-05-14T14:17:41;3.35;;;3.15;;
9938;SDS011;5008;50.656;7.188;2023-05-14T14:20:08;4.05;;;3.75;;
9938;SDS011;5008;50.656;7.188;2023-05-14T14:22:35;4.22;;;3.90;;
9938;SDS011;5008;50.656;7.188;2023-05-14T14:25:03;4.10;;;3.80;;
9938;SDS011;5008;50.656;7.188;2023-05-14T14:27:32;4.57;;;4.22;;
9938;SDS011;5008;50.656;7.188;2023-05-14T14:30:02;3.75;;;3.45;;
9938;SDS011;5008;50.656;7.188;2023-05-14T14:32:30;4.18;;;3.85;;
9938;SDS011;5008;50.656;7.188;2023-05-14T14:34:57;3.95;;;3.65;;
9938;SDS011;5008;50.656;7.188;2023-05-14T14:37:24;3.63;;;3.42;;
9938;SDS011;5008;50.656;7.188;2023-05-14T14:39:51;4.95;;;4.03;;
9938;SDS011;5008;50.656;7.188;2023-05-14T14:42:17;3.90;;;3.60;;
9938;SDS011;5008;50.656;7.188;2023-05-14T14:44:46;4.50;;;3.95;;
9938;SDS011;5008;50.656;7.188;2023-05-14T14:47:12;4.63;;;4.25;;
9938;SDS011;5008;50.656;7.188;2023-05-14T14:49:39;4.93;;;4.47;;
9938;SDS011;5008;50.656;7.188;2023-05-14T14:52:06;4.72;;;4.25;;
9938;SDS011;5008;50.656;7.188;2023-05-14T14:54:33;4.30;;;4.00;;
9938;SDS011;5008;50.656;7.188;2023-05-14T14:57:00;4.35;;;4.05;;
9938;SDS011;5008;50.656;7.188;2023-05-14T14:59:27;5.03;;;4.13;;
9938;SDS011;5008;50.656;7.188;2023-05-14T15:01:55;4.43;;;4.03;;
9938;SDS011;5008;50.656;7.188;2023-05-14T15:04:22;4.28;;;3.97;;
9938;SDS011;5008;50.656;7.188;2023-05-14T15:06:49;4.13;;;3.83;;
9938;SDS011;5008;50.656;7.188;2023-05-14T15:09:16;4.82;;;4.53;;
9938;SDS011;5008;50.656;7.188;2023-05-14T15:11:43;4.20;;;3.80;;
9938;SDS011;5008;50.656;7.188;2023-05-14T15:14:09;4.35;;;3.95;;
9938;SDS011;5008;50.656;7.188;2023-05-14T15:16:37;4.35;;;3.95;;
9938;SDS011;5008;50.656;7.188;2023-05-14T15:19:05;4.15;;;3.85;;
9938;SDS011;5008;50.656;7.188;2023-05-14T15:21:32;3.60;;;3.40;;
9938;SDS011;5008;50.656;7.188;2023-05-14T15:23:59;5.95;;;3.78;;
9938;SDS011;5008;50.656;7.188;2023-05-14T15:26:25;3.55;;;3.25;;
9938;SDS011;5008;50.656;7.188;2023-05-14T15:28:52;4.72;;;3.65;;
9938;SDS011;5008;50.656;7.188;2023-05-14T15:31:19;3.88;;;3.45;;
9938;SDS011;5008;50.656;7.188;2023-05-14T15:33:46;3.60;;;3.30;;
9938;SDS011;5008;50.656;7.188;2023-05-14T15:36:14;3.13;;;2.92;;
9938;SDS011;5008;50.656;7.188;2023-05-14T15:38:41;3.45;;;2.92;;
9938;SDS011;5008;50.656;7.188;2023-05-14T15:41:08;3.40;;;3.08;;
9938;SDS011;5008;50.656;7.188;2023-05-14T15:43:34;4.10;;;3.45;;
9938;SDS011;5008;50.656;7.188;2023-05-14T15:46:01;4.88;;;3.22;;
9938;SDS011;5008;50.656;7.188;2023-05-14T15:48:28;3.17;;;2.97;;
9938;SDS011;5008;50.656;7.188;2023-05-14T15:50:55;3.72;;;3.17;;
9938;SDS011;5008;50.656;7.188;2023-05-14T15:53:24;3.80;;;3.50;;
9938;SDS011;5008;50.656;7.188;2023-05-14T15:55:51;3.33;;;3.03;;
9938;SDS011;5008;50.656;7.188;2023-05-14T15:58:18;3.40;;;3.10;;
9938;SDS011;5008;50.656;7.188;2023-05-14T16:00:44;3.20;;;3.00;;
9938;SDS011;5008;50.656;7.188;2023-05-14T16:03:11;3.17;;;2.88;;
9938;SDS011;5008;50.656;7.188;2023-05-14T16:05:38;3.13;;;2.83;;
9938;SDS011;5008;50.656;7.188;2023-05-14T16:08:06;3.00;;;2.53;;
9938;SDS011;5008;50.656;7.188;2023-05-14T16:10:34;3.08;;;2.33;;
9938;SDS011;5008;50.656;7.188;2023-05-14T16:13:01;2.33;;;2.22;;
9938;SDS011;5008;50.656;7.188;2023-05-14T16:15:28;3.13;;;2.45;;
9938;SDS011;5008;50.656;7.188;2023-05-14T16:17:55;4.22;;;2.40;;
9938;SDS011;5008;50.656;7.188;2023-05-14T16:20:22;2.30;;;2.13;;
9938;SDS011;5008;50.656;7.188;2023-05-14T16:22:49;3.22;;;2.30;;
9938;SDS011;5008;50.656;7.188;2023-05-14T16:25:15;2.85;;;2.22;;
9938;SDS011;5008;50.656;7.188;2023-05-14T16:27:44;2.60;;;2.28;;
9938;SDS011;5008;50.656;7.188;2023-05-14T16:30:11;2.58;;;2.38;;
9938;SDS011;5008;50.656;7.188;2023-05-14T16:32:38;2.22;;;2.13;;
9938;SDS011;5008;50.656;7.188;2023-05-14T16:35:06;2.63;;;2.42;;
9938;SDS011;5008;50.656;7.188;2023-05-14T16:37:33;4.50;;;2.58;;
9938;SDS011;5008;50.656;7.188;2023-05-14T16:40:00;3.10;;;2.90;;
9938;SDS011;5008;50.656;7.188;2023-05-14T16:42:27;3.00;;;2.80;;
9938;SDS011;5008;50.656;7.188;2023-05-14T16:44:56;3.05;;;2.53;;
9938;SDS011;5008;50.656;7.188;2023-05-14T16:47:23;2.97;;;2.75;;
9938;SDS011;5008;50.656;7.188;2023-05-14T16:49:50;3.75;;;2.97;;
9938;SDS011;5008;50.656;7.188;2023-05-14T16:52:16;2.63;;;2.42;;
9938;SDS011;5008;50.656;7.188;2023-05-14T16:54:43;2.42;;;2.22;;
9938;SDS011;5008;50.656;7.188;2023-05-14T16:57:10;2.97;;;2.15;;
9938;SDS011;5008;50.656;7.188;2023-05-14T16:59:37;2.15;;;2.05;;
9938;SDS011;5008;50.656;7.188;2023-05-14T17:02:05;2.47;;;2.28;;
9938;SDS011;5008;50.656;7.188;2023-05-14T17:04:32;2.20;;;2.00;;
9938;SDS011;5008;50.656;7.188;2023-05-14T17:07:02;2.72;;;2.15;;
9938;SDS011;5008;50.656;7.188;2023-05-14T17:09:30;7.75;;;2.20;;
9938;SDS011;5008;50.656;7.188;2023-05-14T17:11:56;2.10;;;2.00;;
9938;SDS011;5008;50.656;7.188;2023-05-14T17:14:23;2.88;;;2.28;;
9938;SDS011;5008;50.656;7.188;2023-05-14T17:16:50;1.90;;;1.80;;
9938;SDS011;5008;50.656;7.188;2023-05-14T17:19:18;2.50;;;2.30;;
9938;SDS011;5008;50.656;7.188;2023-05-14T17:21:45;2.42;;;2.28;;
9938;SDS011;5008;50.656;7.188;2023-05-14T17:24:12;2.05;;;1.95;;
9938;SDS011;5008;50.656;7.188;2023-05-14T17:26:39;1.80;;;1.70;;
9938;SDS011;5008;50.656;7.188;2023-05-14T17:29:06;1.90;;;1.80;;
9938;SDS011;5008;50.656;7.188;2023-05-14T17:31:32;1.92;;;1.83;;
9938;SDS011;5008;50.656;7.188;2023-05-14T17:33:59;1.80;;;1.70;;
9938;SDS011;5008;50.656;7.188;2023-05-14T17:36:28;1.83;;;1.73;;
9938;SDS011;5008;50.656;7.188;2023-05-14T17:38:56;2.10;;;2.00;;
9938;SDS011;5008;50.656;7.188;2023-05-14T17:41:23;1.55;;;1.45;;
9938;SDS011;5008;50.656;7.188;2023-05-14T17:43:50;1.83;;;1.73;;
9938;SDS011;5008;50.656;7.188;2023-05-14T17:46:17;2.05;;;1.90;;
9938;SDS011;5008;50.656;7.188;2023-05-14T17:48:44;1.50;;;1.40;;
9938;SDS011;5008;50.656;7.188;2023-05-14T17:51:11;1.60;;;1.50;;
9938;SDS011;5008;50.656;7.188;2023-05-14T17:53:39;1.80;;;1.70;;
9938;SDS011;5008;50.656;7.188;2023-05-14T17:56:06;1.70;;;1.60;;
9938;SDS011;5008;50.656;7.188;2023-05-14T17:58:33;1.65;;;1.55;;
9938;SDS011;5008;50.656;7.188;2023-05-14T18:01:00;1.75;;;1.50;;
9938;SDS011;5008;50.656;7.188;2023-05-14T18:03:27;1.60;;;1.50;;
9938;SDS011;5008;50.656;7.188;2023-05-14T18:05:54;1.92;;;1.83;;
9938;SDS011;5008;50.656;7.188;2023-05-14T18:08:21;1.92;;;1.77;;
9938;SDS011;5008;50.656;7.188;2023-05-14T18:10:49;1.67;;;1.58;;
9938;SDS011;5008;50.656;7.188;2023-05-14T18:13:16;1.55;;;1.45;;
9938;SDS011;5008;50.656;7.188;2023-05-14T18:15:43;1.80;;;1.70;;
9938;SDS011;5008;50.656;7.188;2023-05-14T18:18:10;2.92;;;1.77;;
9938;SDS011;5008;50.656;7.188;2023-05-14T18:20:37;2.25;;;1.73;;
9938;SDS011;5008;50.656;7.188;2023-05-14T18:23:04;1.60;;;1.50;;
9938;SDS011;5008;50.656;7.188;2023-05-14T18:25:30;1.80;;;1.70;;
9938;SDS011;5008;50.656;7.188;2023-05-14T18:27:59;1.70;;;1.60;;
9938;SDS011;5008;50.656;7.188;2023-05-14T18:30:25;1.85;;;1.75;;
9938;SDS011;5008;50.656;7.188;2023-05-14T18:32:52;1.45;;;1.35;;
9938;SDS011;5008;50.656;7.188;2023-05-14T18:35:19;1.52;;;1.42;;
9938;SDS011;5008;50.656;7.188;2023-05-14T18:37:46;1.80;;;1.70;;
9938;SDS011;5008;50.656;7.188;2023-05-14T18:40:13;1.73;;;1.63;;
9938;SDS011;5008;50.656;7.188;2023-05-14T18:42:40;1.77;;;1.67;;
9938;SDS011;5008;50.656;7.188;2023-05-14T18:45:08;1.60;;;1.50;;
9938;SDS011;5008;50.656;7.188;2023-05-14T18:47:36;1.50;;;1.40;;
9938;SDS011;5008;50.656;7.188;2023-05-14T18:50:04;3.00;;;1.45;;
9938;SDS011;5008;50.656;7.188;2023-05-14T18:52:32;2.03;;;1.60;;
9938;SDS011;5008;50.656;7.188;2023-05-14T18:54:59;4.15;;;1.60;;
9938;SDS011;5008;50.656;7.188;2023-05-14T18:57:26;7.40;;;1.67;;
9938;SDS011;5008;50.656;7.188;2023-05-14T18:59:56;1.80;;;1.70;;
9938;SDS011;5008;50.656;7.188;2023-05-14T19:02:26;2.00;;;1.80;;
9938;SDS011;5008;50.656;7.188;2023-05-14T19:04:53;1.92;;;1.83;;
9938;SDS011;5008;50.656;7.188;2023-05-14T19:07:20;1.88;;;1.77;;
9938;SDS011;5008;50.656;7.188;2023-05-14T19:09:47;3.90;;;1.90;;
9938;SDS011;5008;50.656;7.188;2023-05-14T19:12:14;2.53;;;1.60;;
9938;SDS011;5008;50.656;7.188;2023-05-14T19:14:41;3.08;;;2.10;;
9938;SDS011;5008;50.656;7.188;2023-05-14T19:17:07;1.92;;;1.83;;